Time;durP1;ratioP1;P1;durP2;ratioP2;P2;SDS_P1;SDS_P2;PMS_P1;PMS_P2;Temp;Humidity;BMP_temperature;BMP_pressure;BME280_temperature;BME280_humidity;BME280_pressure;Samples;Min_cycle;Max_cycle;Signal;HPM_P1;HPM_P2
2022/08/09 00:00:38;;;;;;;;;;;;;;;26.60;37.13;97157.19;4233731;28;5665;-66
2022/08/09 00:02:47;;;;;;;;;;;;;;;26.60;37.20;97155.25;4234019;28;5761;-67
2022/08/09 00:04:53;;;;;;;;;;;;;;;26.56;36.94;97143.41;4232664;28;5794;-66
2022/08/09 00:07:16;;;;;;;;;;;;;;;26.55;37.11;97151.81;4233414;27;5805;-66
2022/08/09 00:09:20;;;;;;;;;;;;;;;26.52;37.03;97136.94;4232200;28;5746;-67
2022/08/09 00:11:23;;;;;;;;;;;;;;;26.50;37.07;97149.94;4233706;27;5637;-67
2022/08/09 00:13:47;;;;;;;;;;;;;;;26.52;37.42;97144.25;4233702;28;5664;-66
2022/08/09 00:15:51;;;;;;;;;;;;;;;26.51;37.02;97150.78;4233996;28;5697;-66
2022/08/09 00:18:04;;;;;;;;;;;;;;;26.48;37.50;97160.28;4233624;28;5728;-66
2022/08/09 00:20:14;;;;;;;;;;;;;;;26.38;37.62;97147.63;4233629;28;5868;-66
2022/08/09 00:22:17;;;;;;;;;;;;;;;26.39;37.39;97151.97;4233643;28;5673;-67
2022/08/09 00:24:20;;;;;;;;;;;;;;;26.43;37.66;97152.22;4233782;27;5723;-66
2022/08/09 00:26:25;;;;;;;;;;;;;;;26.40;37.25;97150.06;4233319;28;5852;-66
2022/08/09 00:28:35;;;;;;;;;;;;;;;26.33;37.37;97144.13;4233783;28;5688;-66
2022/08/09 00:30:40;;;;;;;;;;;;;;;26.31;37.83;97146.34;4235653;28;5641;-66
2022/08/09 00:32:42;;;;;;;;;;;;;;;26.36;37.83;97146.28;4236790;27;5657;-66
2022/08/09 00:34:48;;;;;;;;;;;;;;;26.35;37.39;97141.94;4237205;28;5657;-66
2022/08/09 00:36:54;;;;;;;;;;;;;;;26.36;37.50;97143.56;4237204;28;5860;-66
2022/08/09 00:38:59;;;;;;;;;;;;;;;26.35;37.85;97148.16;4237149;28;5649;-67
2022/08/09 00:41:02;;;;;;;;;;;;;;;26.34;37.97;97149.28;4236980;28;5725;-66
2022/08/09 00:43:07;;;;;;;;;;;;;;;26.33;37.71;97154.97;4237089;28;5657;-66
2022/08/09 00:45:29;;;;;;;;;;;;;;;26.32;37.82;97150.66;4236676;28;5633;-66
2022/08/09 00:47:37;;;;;;;;;;;;;;;26.34;38.03;97153.88;4236830;28;5641;-66
2022/08/09 00:49:41;;;;;;;;;;;;;;;26.34;38.13;97153.88;4237169;28;5729;-66
2022/08/09 00:51:57;;;;;;;;;;;;;;;26.33;38.18;97152.28;4236703;28;5670;-67
2022/08/09 00:54:08;;;;;;;;;;;;;;;26.32;38.10;97159.59;4236651;28;5661;-66
2022/08/09 00:56:11;;;;;;;;;;;;;;;26.32;37.93;97165.00;4236183;27;5658;-66
2022/08/09 00:58:15;;;;;;;;;;;;;;;26.32;37.96;97158.78;4236415;28;5665;-66
2022/08/09 01:00:28;;;;;;;;;;;;;;;26.26;38.15;97154.50;4236478;28;6345;-66
2022/08/09 01:02:30;;;;;;;;;;;;;;;26.25;38.37;97156.41;4236735;27;5661;-66
2022/08/09 01:04:45;;;;;;;;;;;;;;;26.25;37.97;97159.09;4236886;27;5740;-67
2022/08/09 01:06:57;;;;;;;;;;;;;;;26.23;38.27;97157.78;4235087;27;5670;-67
2022/08/09 01:09:09;;;;;;;;;;;;;;;26.22;38.37;97148.03;4236359;27;6330;-66
2022/08/09 01:11:23;;;;;;;;;;;;;;;26.20;38.25;97155.66;4236510;28;5712;-66
2022/08/09 01:13:32;;;;;;;;;;;;;;;26.21;38.46;97159.97;4236252;28;5661;-66
2022/08/09 01:15:56;;;;;;;;;;;;;;;26.22;38.46;97164.28;4236117;28;5751;-66
2022/08/09 01:18:03;;;;;;;;;;;;;;;26.20;38.31;97161.06;4236346;28;5640;-66
2022/08/09 01:20:10;;;;;;;;;;;;;;;26.18;38.35;97165.97;4236268;28;6429;-66
2022/08/09 01:22:43;;;;;;;;;;;;;;;26.17;38.32;97165.16;4236222;28;5764;-66
2022/08/09 01:24:57;;;;;;;;;;;;;;;26.12;38.71;97170.59;4236098;27;5661;-66
2022/08/09 01:27:07;;;;;;;;;;;;;;;26.09;38.43;97166.56;4235977;28;5653;-66
2022/08/09 01:29:15;;;;;;;;;;;;;;;26.05;38.53;97168.25;4236350;27;5640;-66
2022/08/09 01:31:22;;;;;;;;;;;;;;;26.06;38.76;97171.75;4235831;28;5693;-66
2022/08/09 01:33:47;;;;;;;;;;;;;;;26.04;39.06;97163.88;4236143;28;5692;-66
2022/08/09 01:35:56;;;;;;;;;;;;;;;26.06;38.74;97166.34;4234720;28;6392;-66
2022/08/09 01:38:06;;;;;;;;;;;;;;;26.06;38.77;97171.75;4236021;27;5991;-67
2022/08/09 01:40:20;;;;;;;;;;;;;;;26.06;38.58;97161.72;4234648;28;5796;-66
2022/08/09 01:42:34;;;;;;;;;;;;;;;26.05;38.93;97151.97;4235308;28;5656;-66
2022/08/09 01:44:40;;;;;;;;;;;;;;;26.03;38.66;97151.44;4235818;28;5844;-66
2022/08/09 01:46:45;;;;;;;;;;;;;;;26.01;38.62;97159.03;4236145;28;5645;-66
2022/08/09 01:48:51;;;;;;;;;;;;;;;26.00;39.14;97159.31;4235963;28;5657;-66
2022/08/09 01:50:55;;;;;;;;;;;;;;;26.02;38.96;97157.13;4236144;28;5794;-67
2022/08/09 01:53:00;;;;;;;;;;;;;;;26.04;38.90;97157.66;4235490;28;5656;-66
2022/08/09 01:55:24;;;;;;;;;;;;;;;26.06;38.85;97160.91;4225818;28;5795;-66
2022/08/09 01:57:36;;;;;;;;;;;;;;;26.06;38.79;97169.84;4235947;28;5645;-66
2022/08/09 01:59:50;;;;;;;;;;;;;;;26.08;38.77;97166.84;4235288;28;5641;-66
2022/08/09 02:01:55;;;;;;;;;;;;;;;26.09;39.15;97171.19;4235944;28;5776;-67
2022/08/09 02:04:03;;;;;;;;;;;;;;;26.09;39.22;97172.00;4235976;28;6335;-66
2022/08/09 02:06:12;;;;;;;;;;;;;;;26.10;39.32;97173.59;4235604;28;5808;-66
2022/08/09 02:08:20;;;;;;;;;;;;;;;26.11;39.28;97172.50;4235676;28;5649;-66
2022/08/09 02:10:47;;;;;;;;;;;;;;;26.12;39.39;97176.03;4218497;28;6187;-66
2022/08/09 02:12:56;;;;;;;;;;;;;;;26.13;39.03;97178.44;4224154;28;5902;-66
2022/08/09 02:15:03;;;;;;;;;;;;;;;26.15;39.31;97175.44;4234886;28;6332;-66
2022/08/09 02:17:12;;;;;;;;;;;;;;;26.14;39.33;97173.84;4235619;28;5664;-66
2022/08/09 02:19:35;;;;;;;;;;;;;;;26.16;39.05;97178.97;4235469;28;5657;-66
2022/08/09 02:21:49;;;;;;;;;;;;;;;26.14;39.23;97176.53;4235680;28;5676;-66
2022/08/09 02:23:59;;;;;;;;;;;;;;;26.13;39.55;97177.63;4235382;28;5874;-66
2022/08/09 02:26:05;;;;;;;;;;;;;;;26.11;39.26;97185.25;4234947;28;6441;-66
2022/08/09 02:28:13;;;;;;;;;;;;;;;26.08;39.42;97193.94;4235377;28;5649;-66
2022/08/09 02:30:19;;;;;;;;;;;;;;;26.08;39.51;97191.25;4235215;28;5669;-67
2022/08/09 02:32:30;;;;;;;;;;;;;;;26.08;39.25;97191.25;4233848;28;5586;-66
2022/08/09 02:34:36;;;;;;;;;;;;;;;26.09;39.40;97198.28;4235312;28;5822;-66
2022/08/09 02:36:56;;;;;;;;;;;;;;;26.07;39.62;97195.84;4235209;28;5732;-66
2022/08/09 02:39:04;;;;;;;;;;;;;;;26.04;39.35;97188.25;4235530;28;6191;-66
2022/08/09 02:41:11;;;;;;;;;;;;;;;26.02;39.29;97192.34;4235101;28;5649;-66
2022/08/09 02:43:17;;;;;;;;;;;;;;;26.00;39.42;97199.97;4235097;27;5732;-66
2022/08/09 02:45:27;;;;;;;;;;;;;;;25.96;39.47;97193.50;4234612;28;5641;-66
2022/08/09 02:47:32;;;;;;;;;;;;;;;25.92;39.72;97197.84;4234987;28;5652;-66
2022/08/09 02:49:59;;;;;;;;;;;;;;;25.96;39.89;97191.59;4235237;27;5674;-67
2022/08/09 02:52:05;;;;;;;;;;;;;;;25.98;39.79;97197.53;4234692;28;5828;-66
2022/08/09 02:54:14;;;;;;;;;;;;;;;25.97;39.94;97193.22;4234867;28;5649;-66
2022/08/09 02:56:19;;;;;;;;;;;;;;;25.96;39.61;97198.91;4234639;28;5669;-66
2022/08/09 02:58:28;;;;;;;;;;;;;;;25.93;39.96;97197.56;4234807;27;5645;-66
2022/08/09 03:00:40;;;;;;;;;;;;;;;25.93;39.63;97192.13;4234622;27;5674;-66
2022/08/09 03:03:00;;;;;;;;;;;;;;;25.95;39.89;97191.88;4234801;28;5661;-66
2022/08/09 03:05:05;;;;;;;;;;;;;;;25.93;39.77;97197.56;4234548;27;6422;-66
2022/08/09 03:07:09;;;;;;;;;;;;;;;25.90;39.98;97190.00;4234205;27;5654;-66
2022/08/09 03:09:19;;;;;;;;;;;;;;;25.87;39.84;97187.88;4234347;28;5665;-66
2022/08/09 03:11:23;;;;;;;;;;;;;;;25.88;40.09;97192.19;4234743;27;5860;-66
2022/08/09 03:13:48;;;;;;;;;;;;;;;25.90;40.01;97189.19;4234376;28;5661;-66
2022/08/09 03:16:04;;;;;;;;;;;;;;;25.89;39.67;97182.97;4234151;28;5740;-66
2022/08/09 03:18:09;;;;;;;;;;;;;;;25.91;40.05;97186.19;4234550;28;5645;-66
2022/08/09 03:20:13;;;;;;;;;;;;;;;25.87;39.85;97185.16;4234260;28;5662;-66
2022/08/09 03:22:19;;;;;;;;;;;;;;;25.86;39.94;97188.97;4234415;28;5860;-66
2022/08/09 03:24:32;;;;;;;;;;;;;;;25.85;39.96;97190.06;4234237;28;5668;-67
2022/08/09 03:26:55;;;;;;;;;;;;;;;25.75;40.29;97190.91;4233912;28;5704;-66
2022/08/09 03:29:01;;;;;;;;;;;;;;;25.70;40.11;97188.22;4234484;28;5653;-66
2022/08/09 03:31:16;;;;;;;;;;;;;;;25.73;40.21;97189.59;4232370;28;5827;-66
2022/08/09 03:33:25;;;;;;;;;;;;;;;25.73;40.46;97192.31;4234354;27;6410;-66
2022/08/09 03:35:49;;;;;;;;;;;;;;;25.72;40.51;97183.38;4234319;28;5645;-66
2022/08/09 03:38:12;;;;;;;;;;;;;;;25.73;40.28;97186.88;4234281;28;5629;-66
2022/08/09 03:40:32;;;;;;;;;;;;;;;25.73;40.14;97184.19;4234373;28;5681;-66
2022/08/09 03:42:35;;;;;;;;;;;;;;;25.72;40.31;97187.97;4234320;28;5644;-66
2022/08/09 03:44:40;;;;;;;;;;;;;;;25.69;40.18;97188.47;4233863;28;5661;-66
2022/08/09 03:46:43;;;;;;;;;;;;;;;25.67;40.17;97187.97;4234486;28;6426;-66
2022/08/09 03:48:50;;;;;;;;;;;;;;;25.65;40.30;97192.84;4234167;28;5657;-66
2022/08/09 03:50:54;;;;;;;;;;;;;;;25.64;40.55;97188.53;4234302;27;5758;-66
2022/08/09 03:53:05;;;;;;;;;;;;;;;25.59;40.17;97193.97;4234040;28;5634;-66
2022/08/09 03:55:13;;;;;;;;;;;;;;;25.57;40.53;97190.72;4233893;28;6325;-66
2022/08/09 03:57:20;;;;;;;;;;;;;;;25.52;40.62;97192.38;4217008;28;5694;-66
2022/08/09 03:59:23;;;;;;;;;;;;;;;25.47;40.51;97197.81;4216917;28;5694;-66
2022/08/09 04:01:48;;;;;;;;;;;;;;;25.45;40.52;97193.78;4216935;28;5813;-66
2022/08/09 04:03:54;;;;;;;;;;;;;;;25.39;40.49;97195.69;4217020;28;6348;-67
2022/08/09 04:06:04;;;;;;;;;;;;;;;25.38;40.75;97194.09;4216647;28;5745;-66
2022/08/09 04:08:09;;;;;;;;;;;;;;;25.37;40.50;97200.59;4215643;28;5727;-66
2022/08/09 04:10:11;;;;;;;;;;;;;;;25.36;40.49;97201.66;4230168;28;5649;-66
2022/08/09 04:12:50;;;;;;;;;;;;;;;25.34;40.83;97203.03;4232149;28;5675;-66
2022/08/09 04:14:53;;;;;;;;;;;;;;;25.35;40.80;97201.94;4233286;27;5645;-66
2022/08/09 04:17:06;;;;;;;;;;;;;;;25.31;40.87;97201.69;4234090;28;5749;-66
2022/08/09 04:19:09;;;;;;;;;;;;;;;25.30;41.00;97210.09;4233666;28;5330;-66
2022/08/09 04:21:17;;;;;;;;;;;;;;;25.27;40.56;97208.75;4216987;28;5694;-66
2022/08/09 04:23:22;;;;;;;;;;;;;;;25.29;40.74;97200.34;4216903;28;5671;-66
2022/08/09 04:25:27;;;;;;;;;;;;;;;25.29;41.05;97201.16;4219309;28;5883;-66
2022/08/09 04:27:30;;;;;;;;;;;;;;;25.32;40.81;97208.72;4233749;28;5673;-66
2022/08/09 04:29:39;;;;;;;;;;;;;;;25.29;40.83;97201.16;4233396;27;6324;-66
2022/08/09 04:31:52;;;;;;;;;;;;;;;25.29;40.99;97200.34;4233557;28;5637;-66
2022/08/09 04:34:01;;;;;;;;;;;;;;;25.25;41.16;97200.06;4233838;28;5763;-66
2022/08/09 04:36:05;;;;;;;;;;;;;;;25.23;40.99;97204.97;4232088;28;8456;-66
2022/08/09 04:38:09;;;;;;;;;;;;;;;25.20;41.01;97209.03;4232360;28;5702;-66
2022/08/09 04:40:12;;;;;;;;;;;;;;;25.20;41.14;97200.91;4233604;28;5653;-66
2022/08/09 04:42:35;;;;;;;;;;;;;;;25.23;41.03;97202.25;4233602;28;5634;-66
2022/08/09 04:44:39;;;;;;;;;;;;;;;25.20;41.55;97206.34;4233239;28;5646;-66
2022/08/09 04:46:51;;;;;;;;;;;;;;;25.18;41.61;97205.81;4232352;28;5098;-66
2022/08/09 04:49:04;;;;;;;;;;;;;;;25.17;41.16;97220.41;4233833;27;5649;-67
2022/08/09 04:51:07;;;;;;;;;;;;;;;25.18;41.53;97221.22;4233548;28;5798;-66
2022/08/09 04:53:11;;;;;;;;;;;;;;;25.18;41.48;97222.03;4233535;28;6322;-66
2022/08/09 04:55:15;;;;;;;;;;;;;;;25.20;41.34;97213.63;4233397;28;5681;-66
2022/08/09 04:57:21;;;;;;;;;;;;;;;25.17;41.24;97222.31;4215250;28;5735;-66
2022/08/09 04:59:26;;;;;;;;;;;;;;;25.15;41.56;97222.59;4216710;28;5686;-66
2022/08/09 05:01:32;;;;;;;;;;;;;;;25.16;41.39;97234.22;4216174;28;5694;-67
2022/08/09 05:03:35;;;;;;;;;;;;;;;25.16;41.70;97234.22;4216607;28;5753;-66
2022/08/09 05:05:47;;;;;;;;;;;;;;;25.15;41.80;97229.91;4216670;28;5682;-67
2022/08/09 05:08:06;;;;;;;;;;;;;;;25.14;41.41;97230.97;4216622;28;5676;-66
2022/08/09 05:10:11;;;;;;;;;;;;;;;25.12;41.72;97231.25;4229479;28;5653;-66
2022/08/09 05:12:14;;;;;;;;;;;;;;;25.12;42.01;97233.94;4233132;28;5685;-66
2022/08/09 05:14:17;;;;;;;;;;;;;;;25.13;42.15;97240.97;4231875;28;5769;-66
2022/08/09 05:16:20;;;;;;;;;;;;;;;25.16;42.07;97245.03;4233243;28;5653;-66
2022/08/09 05:18:34;;;;;;;;;;;;;;;25.18;42.11;97248.28;4236587;28;5736;-66
2022/08/09 05:20:58;;;;;;;;;;;;;;;25.20;41.94;97246.09;4236075;28;5657;-66
2022/08/09 05:23:01;;;;;;;;;;;;;;;25.19;42.21;97245.28;4229110;28;5757;-66
2022/08/09 05:25:25;;;;;;;;;;;;;;;25.21;41.90;97247.72;4227925;28;6558;-66
2022/08/09 05:27:34;;;;;;;;;;;;;;;25.22;41.97;97241.22;4226757;28;5851;-66
2022/08/09 05:29:49;;;;;;;;;;;;;;;25.25;42.09;97254.19;4234736;28;5868;-66
2022/08/09 05:31:53;;;;;;;;;;;;;;;25.26;42.11;97250.44;4229295;27;5776;-66
2022/08/09 05:33:59;;;;;;;;;;;;;;;25.27;42.38;97256.66;4234581;28;6213;-67
2022/08/09 05:36:04;;;;;;;;;;;;;;;25.26;42.35;97261.25;4226750;28;5708;-66
2022/08/09 05:38:10;;;;;;;;;;;;;;;25.26;42.58;97253.13;4225945;27;7232;-66
2022/08/09 05:40:24;;;;;;;;;;;;;;;25.24;42.79;97247.97;4223107;28;5737;-65
2022/08/09 05:42:27;;;;;;;;;;;;;;;25.24;42.71;97256.09;4232694;27;5649;-68
2022/08/09 05:44:30;;;;;;;;;;;;;;;25.25;42.55;97255.00;4219507;27;5674;-68
2022/08/09 05:46:35;;;;;;;;;;;;;;;25.30;42.76;97253.38;4222949;28;5657;-68
2022/08/09 05:48:37;;;;;;;;;;;;;;;25.36;42.88;97257.69;4221344;27;5727;-68
2022/08/09 05:50:42;;;;;;;;;;;;;;;25.39;42.78;97255.25;4226885;28;5653;-68
2022/08/09 05:53:07;;;;;;;;;;;;;;;25.43;42.49;97256.31;4223813;27;5749;-68
2022/08/09 05:55:23;;;;;;;;;;;;;;;25.44;42.55;97257.91;4219676;28;5783;-69
2022/08/09 05:57:26;;;;;;;;;;;;;;;25.49;42.88;97266.03;4225971;27;5665;-68
2022/08/09 05:59:49;;;;;;;;;;;;;;;25.56;42.71;97254.88;4225923;28;5674;-68
2022/08/09 06:01:52;;;;;;;;;;;;;;;25.65;42.72;97264.06;4218760;28;5752;-68
2022/08/09 06:04:01;;;;;;;;;;;;;;;25.78;42.48;97259.94;4218729;28;5678;-68
2022/08/09 06:06:08;;;;;;;;;;;;;;;25.88;42.38;97262.59;4218463;28;5670;-68
2022/08/09 06:08:12;;;;;;;;;;;;;;;25.98;42.30;97259.84;4234209;28;5642;-68
2022/08/09 06:10:36;;;;;;;;;;;;;;;26.07;42.58;97266.28;4235309;27;6309;-68
2022/08/09 06:12:39;;;;;;;;;;;;;;;26.16;42.62;97268.38;4220551;28;5719;-68
2022/08/09 06:14:44;;;;;;;;;;;;;;;26.19;42.57;97262.41;4228339;28;5741;-68
2022/08/09 06:16:47;;;;;;;;;;;;;;;26.21;42.34;97268.38;4225249;28;5653;-68
2022/08/09 06:18:54;;;;;;;;;;;;;;;26.21;42.38;97265.66;4227943;27;5728;-68
2022/08/09 06:21:01;;;;;;;;;;;;;;;26.22;42.68;97267.28;4231096;28;5861;-68
2022/08/09 06:23:05;;;;;;;;;;;;;;;26.23;42.50;97274.31;4225158;28;6352;-67
2022/08/09 06:25:15;;;;;;;;;;;;;;;26.26;42.34;97273.72;4226067;28;5777;-68
2022/08/09 06:27:22;;;;;;;;;;;;;;;26.27;42.51;97278.06;4234012;27;5092;-67
2022/08/09 06:29:26;;;;;;;;;;;;;;;26.28;42.48;97277.81;4229638;28;5768;-68
2022/08/09 06:31:29;;;;;;;;;;;;;;;26.32;42.48;97286.16;4233801;28;5745;-67
2022/08/09 06:33:52;;;;;;;;;;;;;;;26.34;42.83;97275.84;4222438;28;5667;-67
2022/08/09 06:35:55;;;;;;;;;;;;;;;26.36;42.60;97281.78;4218314;28;5741;-67
2022/08/09 06:38:00;;;;;;;;;;;;;;;26.37;42.87;97288.84;4229185;28;5660;-67
2022/08/09 06:40:09;;;;;;;;;;;;;;;26.37;42.92;97294.28;4232774;28;5812;-67
2022/08/09 06:42:27;;;;;;;;;;;;;;;26.35;42.55;97288.31;4232640;28;5760;-67
2022/08/09 06:44:35;;;;;;;;;;;;;;;26.35;42.79;97296.44;4235072;28;5660;-67
2022/08/09 06:46:39;;;;;;;;;;;;;;;26.36;42.99;97300.75;4228866;27;5735;-67
2022/08/09 06:48:43;;;;;;;;;;;;;;;26.34;42.62;97300.25;4223349;28;5649;-67
2022/08/09 06:50:47;;;;;;;;;;;;;;;26.33;43.01;97296.72;4250271;27;7757;-67
2022/08/09 06:52:50;;;;;;;;;;;;;;;26.35;42.65;97293.72;4234364;28;5712;-68
2022/08/09 06:54:54;;;;;;;;;;;;;;;26.34;43.00;97292.91;4233892;27;5770;-68
2022/08/09 06:56:58;;;;;;;;;;;;;;;26.36;42.81;97296.19;4224001;28;5682;-67
2022/08/09 06:59:02;;;;;;;;;;;;;;;26.37;43.07;97297.78;4221068;28;6335;-68
2022/08/09 07:01:25;;;;;;;;;;;;;;;26.38;42.78;97294.00;4229754;28;5812;-67
2022/08/09 07:03:49;;;;;;;;;;;;;;;26.35;43.10;97291.81;4233847;28;5693;-68
2022/08/09 07:05:57;;;;;;;;;;;;;;;26.36;43.21;97290.75;4234409;27;5645;-67
2022/08/09 07:08:07;;;;;;;;;;;;;;;26.39;42.91;97294.84;4233631;28;5736;-68
2022/08/09 07:10:10;;;;;;;;;;;;;;;26.38;42.95;97295.91;4229994;28;5905;-68
2022/08/09 07:12:26;;;;;;;;;;;;;;;26.36;43.29;97301.59;4218974;28;5770;-68
2022/08/09 07:14:44;;;;;;;;;;;;;;;26.36;43.22;97295.34;4233171;28;5805;-68
2022/08/09 07:16:52;;;;;;;;;;;;;;;26.36;43.40;97300.75;4230851;27;5846;-68
2022/08/09 07:19:00;;;;;;;;;;;;;;;26.36;43.09;97309.72;4230767;28;5829;-68
2022/08/09 07:21:03;;;;;;;;;;;;;;;26.34;43.36;97309.19;4218522;28;6229;-68
2022/08/09 07:23:10;;;;;;;;;;;;;;;26.33;43.12;97310.28;4228880;28;6418;-68
2022/08/09 07:25:21;;;;;;;;;;;;;;;26.33;43.46;97312.19;4218593;28;5864;-68
2022/08/09 07:27:26;;;;;;;;;;;;;;;26.32;43.19;97305.13;4232560;28;5669;-68
2022/08/09 07:29:45;;;;;;;;;;;;;;;26.32;43.18;97307.84;4233582;28;5736;-67
2022/08/09 07:31:48;;;;;;;;;;;;;;;26.33;43.40;97309.47;4233382;27;5653;-68
2022/08/09 07:33:51;;;;;;;;;;;;;;;26.29;43.42;97306.53;4233431;28;5744;-67
2022/08/09 07:35:57;;;;;;;;;;;;;;;26.32;43.56;97305.94;4233010;28;6519;-68
2022/08/09 07:38:02;;;;;;;;;;;;;;;26.32;43.50;97310.56;4223925;27;5675;-68
2022/08/09 07:40:06;;;;;;;;;;;;;;;26.32;43.48;97305.13;4216558;28;5901;-68
2022/08/09 07:42:10;;;;;;;;;;;;;;;26.34;43.59;97301.06;4228794;28;5793;-68
2022/08/09 07:44:13;;;;;;;;;;;;;;;26.35;43.54;97310.81;4230557;28;5862;-67
2022/08/09 07:46:18;;;;;;;;;;;;;;;26.33;43.32;97301.34;4219203;28;5801;-68
2022/08/09 07:48:21;;;;;;;;;;;;;;;26.31;43.75;97300.81;4230743;28;6394;-68
2022/08/09 07:50:34;;;;;;;;;;;;;;;26.27;43.72;97297.84;4232206;28;5681;-68
2022/08/09 07:52:40;;;;;;;;;;;;;;;26.26;43.58;97306.25;4233297;28;5657;-68
2022/08/09 07:54:44;;;;;;;;;;;;;;;26.27;43.90;97297.84;4233134;28;5684;-68
2022/08/09 07:56:55;;;;;;;;;;;;;;;26.29;44.07;97303.00;4232473;28;5732;-67
2022/08/09 07:59:00;;;;;;;;;;;;;;;26.27;43.94;97314.09;4232617;27;5653;-68
2022/08/09 08:01:03;;;;;;;;;;;;;;;26.26;43.96;97311.66;4233354;28;5716;-66
2022/08/09 08:03:14;;;;;;;;;;;;;;;26.26;44.02;97312.47;4234057;28;5681;-66
2022/08/09 08:05:19;;;;;;;;;;;;;;;26.28;44.40;97309.53;4233442;28;7161;-67
2022/08/09 08:07:22;;;;;;;;;;;;;;;26.28;44.08;97307.63;4231996;28;5661;-67
2022/08/09 08:09:46;;;;;;;;;;;;;;;26.29;44.41;97303.81;4226662;28;5765;-67
2022/08/09 08:12:07;;;;;;;;;;;;;;;26.29;44.52;97311.13;4232596;28;5653;-67
2022/08/09 08:14:29;;;;;;;;;;;;;;;26.31;44.20;97303.53;4228916;28;5661;-67
2022/08/09 08:16:33;;;;;;;;;;;;;;;26.31;44.43;97307.03;4228085;27;5677;-67
2022/08/09 08:18:37;;;;;;;;;;;;;;;26.30;44.68;97308.13;4230290;27;5910;-67
2022/08/09 08:20:45;;;;;;;;;;;;;;;26.32;44.76;97313.28;4229802;28;5732;-67
2022/08/09 08:22:49;;;;;;;;;;;;;;;26.33;44.47;97306.75;4228990;28;5657;-67
2022/08/09 08:24:57;;;;;;;;;;;;;;;26.32;44.59;97311.38;4231287;28;5661;-67
2022/08/09 08:27:01;;;;;;;;;;;;;;;26.32;44.86;97310.56;4232513;28;5799;-67
2022/08/09 08:29:03;;;;;;;;;;;;;;;26.31;44.54;97304.34;4233724;28;5724;-67
2022/08/09 08:31:07;;;;;;;;;;;;;;;26.30;45.11;97307.31;4230274;28;7802;-67
2022/08/09 08:33:17;;;;;;;;;;;;;;;26.30;45.04;97316.25;4221070;28;5653;-67
2022/08/09 08:35:27;;;;;;;;;;;;;;;26.29;45.09;97313.84;4233047;28;5650;-67
2022/08/09 08:37:51;;;;;;;;;;;;;;;26.28;45.26;97306.81;4232357;28;5672;-68
2022/08/09 08:40:29;;;;;;;;;;;;;;;26.29;45.28;97311.13;4231076;28;5625;-67
2022/08/09 08:42:34;;;;;;;;;;;;;;;26.30;45.00;97307.31;4233689;28;5748;-68
2022/08/09 08:44:42;;;;;;;;;;;;;;;26.31;45.22;97306.22;4230068;28;5641;-67
2022/08/09 08:46:46;;;;;;;;;;;;;;;26.37;45.31;97310.53;4219203;28;5670;-68
2022/08/09 08:49:06;;;;;;;;;;;;;;;26.40;44.87;97307.28;4217087;28;5762;-67
2022/08/09 08:51:16;;;;;;;;;;;;;;;26.44;45.06;97305.63;4219630;28;5753;-67
2022/08/09 08:53:20;;;;;;;;;;;;;;;26.44;44.93;97307.53;4236892;27;5678;-67
2022/08/09 08:55:24;;;;;;;;;;;;;;;26.39;45.43;97311.91;4233398;28;5740;-67
2022/08/09 08:57:28;;;;;;;;;;;;;;;26.40;45.06;97307.28;4234314;28;5821;-66
2022/08/09 08:59:36;;;;;;;;;;;;;;;26.39;45.43;97308.38;4235189;28;5657;-67
2022/08/09 09:01:50;;;;;;;;;;;;;;;26.38;44.99;97309.44;4226812;28;5750;-67
2022/08/09 09:04:00;;;;;;;;;;;;;;;26.39;45.35;97308.38;4236044;27;5660;-67
2022/08/09 09:06:06;;;;;;;;;;;;;;;26.42;45.09;97312.44;4217778;28;5862;-67
2022/08/09 09:08:14;;;;;;;;;;;;;;;26.43;45.39;97312.13;4232521;28;5720;-67
2022/08/09 09:10:36;;;;;;;;;;;;;;;26.44;45.10;97307.53;4221978;28;5741;-67
2022/08/09 09:12:41;;;;;;;;;;;;;;;26.44;45.43;97311.03;4234411;28;6411;-68
2022/08/09 09:14:48;;;;;;;;;;;;;;;26.46;45.26;97314.28;4226285;28;5815;-67
2022/08/09 09:16:54;;;;;;;;;;;;;;;26.47;45.40;97318.59;4218431;28;5834;-67
2022/08/09 09:18:58;;;;;;;;;;;;;;;26.50;45.35;97317.22;4236357;28;5657;-67
2022/08/09 09:21:21;;;;;;;;;;;;;;;26.49;45.38;97304.75;4230617;28;5865;-67
2022/08/09 09:23:41;;;;;;;;;;;;;;;26.53;45.20;97306.66;4235282;28;6998;-67
2022/08/09 09:25:51;;;;;;;;;;;;;;;26.57;45.15;97307.69;4228791;28;5761;-67
2022/08/09 09:28:07;;;;;;;;;;;;;;;26.55;45.08;97309.88;4231908;28;5652;-67
2022/08/09 09:30:13;;;;;;;;;;;;;;;26.58;45.47;97306.59;4232460;28;5837;-67
2022/08/09 09:32:36;;;;;;;;;;;;;;;26.57;45.03;97296.84;4225271;28;5641;-67
2022/08/09 09:34:43;;;;;;;;;;;;;;;26.60;45.02;97307.09;4233220;28;6529;-67
2022/08/09 09:36:47;;;;;;;;;;;;;;;26.59;45.24;97297.38;4228110;28;6437;-67
2022/08/09 09:38:57;;;;;;;;;;;;;;;26.62;44.99;97301.44;4235292;27;5649;-68
2022/08/09 09:41:01;;;;;;;;;;;;;;;26.63;44.99;97303.03;4235019;28;7729;-67
2022/08/09 09:43:06;;;;;;;;;;;;;;;26.64;45.14;97308.19;4230431;28;5657;-67
2022/08/09 09:45:15;;;;;;;;;;;;;;;26.66;45.14;97300.56;4220854;28;5859;-67
2022/08/09 09:47:30;;;;;;;;;;;;;;;26.68;44.90;97309.22;4235870;28;5817;-67
2022/08/09 09:49:38;;;;;;;;;;;;;;;26.72;45.08;97297.78;4235699;28;5665;-67
2022/08/09 09:52:04;;;;;;;;;;;;;;;26.75;44.99;97302.69;4234982;28;5657;-68
2022/08/09 09:54:21;;;;;;;;;;;;;;;26.77;45.35;97300.47;4234474;28;6084;-68
2022/08/09 09:56:32;;;;;;;;;;;;;;;26.79;45.19;97303.72;4232622;28;5824;-68
2022/08/09 09:58:45;;;;;;;;;;;;;;;26.80;45.12;97299.91;4235560;28;5657;-67
2022/08/09 10:00:52;;;;;;;;;;;;;;;26.81;44.89;97302.31;4218756;28;5678;-67
2022/08/09 10:03:01;;;;;;;;;;;;;;;26.81;44.79;97290.66;4217265;28;5734;-67
2022/08/09 10:05:13;;;;;;;;;;;;;;;26.83;44.83;97296.63;4235786;28;5796;-67
2022/08/09 10:07:29;;;;;;;;;;;;;;;26.86;44.74;97304.19;4233371;28;5728;-68
2022/08/09 10:09:48;;;;;;;;;;;;;;;26.86;44.85;97296.88;4235415;28;5779;-67
2022/08/09 10:12:01;;;;;;;;;;;;;;;26.86;44.83;97296.06;4233819;28;5904;-65
2022/08/09 10:14:26;;;;;;;;;;;;;;;26.87;45.12;97303.09;4227890;28;5900;-65
2022/08/09 10:16:37;;;;;;;;;;;;;;;26.89;44.83;97295.50;4227286;28;5638;-67
2022/08/09 10:19:02;;;;;;;;;;;;;;;26.88;44.98;97291.97;4235137;28;5657;-67
2022/08/09 10:21:10;;;;;;;;;;;;;;;26.89;44.90;97299.00;4233698;28;6157;-67
2022/08/09 10:23:19;;;;;;;;;;;;;;;26.90;44.81;97291.69;4217343;28;5786;-67
2022/08/09 10:25:25;;;;;;;;;;;;;;;26.94;44.86;97296.22;4220559;28;6243;-67
2022/08/09 10:27:48;;;;;;;;;;;;;;;26.97;44.67;97300.31;4222673;28;5638;-66
2022/08/09 10:30:01;;;;;;;;;;;;;;;26.97;44.80;97294.88;4231914;28;5641;-67
2022/08/09 10:32:25;;;;;;;;;;;;;;;26.98;44.90;97291.88;4232483;28;5989;-67
2022/08/09 10:34:45;;;;;;;;;;;;;;;27.01;44.82;97289.69;4235330;28;5814;-67
2022/08/09 10:36:55;;;;;;;;;;;;;;;27.02;44.97;97289.41;4234249;28;5766;-67
2022/08/09 10:38:59;;;;;;;;;;;;;;;27.04;44.83;97281.78;4235059;28;5741;-67
2022/08/09 10:41:04;;;;;;;;;;;;;;;27.03;44.62;97284.78;4234848;28;6331;-67
2022/08/09 10:43:11;;;;;;;;;;;;;;;27.04;44.84;97280.97;4218244;28;5797;-67
2022/08/09 10:45:17;;;;;;;;;;;;;;;27.05;44.76;97291.56;4234668;28;5638;-66
2022/08/09 10:47:37;;;;;;;;;;;;;;;27.05;44.54;97277.97;4234708;27;6583;-67
2022/08/09 10:50:06;;;;;;;;;;;;;;;27.08;44.89;97282.06;4234936;28;5653;-67
2022/08/09 10:52:29;;;;;;;;;;;;;;;27.12;44.75;97283.09;4234374;28;5818;-67
2022/08/09 10:54:32;;;;;;;;;;;;;;;27.14;44.71;97281.69;4234410;27;5701;-66
2022/08/09 10:56:38;;;;;;;;;;;;;;;27.17;44.90;97280.31;4230552;28;5747;-67
2022/08/09 10:58:41;;;;;;;;;;;;;;;27.17;44.60;97280.31;4224095;27;5666;-67
2022/08/09 11:00:51;;;;;;;;;;;;;;;27.20;44.56;97282.47;4231153;28;5860;-67
2022/08/09 11:03:24;;;;;;;;;;;;;;;27.21;44.71;97274.03;4234152;28;5748;-68
2022/08/09 11:06:23;;;;;;;;;;;;;;;27.25;44.55;97272.34;4230332;28;5649;-67
2022/08/09 11:08:43;;;;;;;;;;;;;;;27.26;44.63;97271.25;4206430;28;5661;-67
2022/08/09 11:10:57;;;;;;;;;;;;;;;27.27;44.54;97267.44;4184431;28;5063;-66
2022/08/09 11:13:16;;;;;;;;;;;;;;;27.27;44.54;97267.44;4197553;28;5923;-66
2022/08/09 11:15:39;;;;;;;;;;;;;;;27.29;44.53;97269.84;4194027;28;5663;-66
2022/08/09 11:18:03;;;;;;;;;;;;;;;27.30;44.64;97281.53;4201583;28;5679;-66
2022/08/09 11:20:08;;;;;;;;;;;;;;;27.30;44.48;97270.69;4200283;28;6342;-66
2022/08/09 11:23:02;;;;;;;;;;;;;;;27.33;44.42;97265.47;4200616;28;5667;-66
2022/08/09 11:25:13;;;;;;;;;;;;;;;27.32;44.68;97260.34;4201012;28;5659;-66
2022/08/09 11:27:29;;;;;;;;;;;;;;;27.34;44.86;97266.28;4200328;28;5364;-66